createdAt,value
2023-02-24T00:01:39.902Z,15.83
2023-02-24T00:04:09.107Z,15.82
2023-02-24T00:06:43.787Z,15.82
2023-02-24T00:09:12.079Z,15.82
2023-02-24T00:11:42.024Z,15.81
2023-02-24T00:14:10.311Z,15.81
2023-02-24T00:16:39.787Z,15.82
2023-02-24T00:19:09.438Z,15.80
2023-02-24T00:21:35.925Z,15.79
2023-02-24T00:24:02.505Z,15.79
2023-02-24T00:26:29.918Z,15.79
2023-02-24T00:29:03.230Z,15.77
2023-02-24T00:31:33.121Z,15.76
2023-02-24T00:34:01.569Z,15.76
2023-02-24T00:36:30.442Z,15.76
2023-02-24T00:38:59.852Z,15.75
2023-02-24T00:41:29.376Z,15.75
2023-02-24T00:43:58.863Z,15.74
2023-02-24T00:46:26.525Z,15.74
2023-02-24T00:48:55.176Z,15.75
2023-02-24T00:51:25.400Z,15.73
2023-02-24T00:53:57.250Z,15.74
2023-02-24T00:56:28.573Z,15.73
2023-02-24T00:58:57.421Z,15.73
2023-02-24T01:01:32.761Z,15.72
2023-02-24T01:04:05.657Z,15.72
2023-02-24T01:06:34.104Z,15.72
2023-02-24T01:09:00.971Z,15.71
2023-02-24T01:11:51.808Z,15.70
2023-02-24T01:14:21.681Z,15.71
2023-02-24T01:16:51.627Z,15.70
2023-02-24T01:19:19.943Z,15.69
2023-02-24T01:21:47.182Z,15.70
2023-02-24T01:24:15.482Z,15.69
2023-02-24T01:26:42.658Z,15.69
2023-02-24T01:29:11.662Z,15.68
2023-02-24T01:31:39.450Z,15.68
2023-02-24T01:34:06.114Z,15.67
2023-02-24T01:36:33.900Z,15.68
2023-02-24T01:39:01.105Z,15.68
2023-02-24T01:41:28.126Z,15.67
2023-02-24T01:44:08.905Z,15.66
2023-02-24T01:46:40.612Z,15.67
2023-02-24T01:49:12.214Z,15.66
2023-02-24T01:51:52.495Z,15.67
2023-02-24T01:54:22.703Z,15.66
2023-02-24T01:56:53.410Z,15.66
2023-02-24T01:59:23.993Z,15.66
2023-02-24T02:01:54.507Z,15.67
2023-02-24T02:04:31.787Z,15.66
2023-02-24T02:06:58.643Z,15.65
2023-02-24T02:09:26.196Z,15.66
2023-02-24T02:11:52.736Z,15.65
2023-02-24T02:14:24.271Z,15.64
2023-02-24T02:17:21.707Z,15.63
2023-02-24T02:20:16.234Z,15.62
2023-02-24T02:23:12.901Z,15.61
2023-02-24T02:25:59.437Z,15.62
2023-02-24T02:28:55.140Z,15.61
2023-02-24T02:31:59.213Z,15.60
2023-02-24T02:34:53.757Z,15.60
2023-02-24T02:37:50.929Z,15.59
2023-02-24T02:40:25.704Z,15.60
2023-02-24T02:43:25.872Z,15.57
2023-02-24T02:46:11.052Z,15.57
2023-02-24T02:49:09.128Z,15.56
2023-02-24T02:51:42.701Z,15.56
2023-02-24T02:54:15.577Z,15.56
2023-02-24T02:56:50.654Z,15.56
2023-02-24T02:59:23.255Z,15.58
2023-02-24T03:01:52.605Z,15.57
2023-02-24T03:04:22.975Z,15.57
2023-02-24T03:06:56.893Z,15.57
2023-02-24T03:09:29.429Z,15.58
2023-02-24T03:12:07.893Z,15.57
2023-02-24T03:14:39.586Z,15.56
2023-02-24T03:17:12.653Z,15.57
2023-02-24T03:19:40.784Z,15.57
2023-02-24T03:22:15.210Z,15.55
2023-02-24T03:24:44.242Z,15.57
2023-02-24T03:27:39.772Z,15.52
2023-02-24T03:30:16.098Z,15.56
2023-02-24T03:32:58.531Z,15.54
2023-02-24T03:35:38.928Z,15.54
2023-02-24T03:38:06.423Z,15.54
2023-02-24T03:40:35.946Z,15.53
2023-02-24T03:43:16.824Z,15.52
2023-02-24T03:45:44.304Z,15.52
2023-02-24T03:48:14.644Z,15.52
2023-02-24T03:50:42.533Z,15.51
2023-02-24T03:53:15.088Z,15.51
2023-02-24T03:55:58.736Z,15.50
2023-02-24T03:58:52.038Z,15.50
2023-02-24T04:01:50.197Z,15.49
2023-02-24T04:04:31.630Z,15.50
2023-02-24T04:07:02.375Z,15.51
2023-02-24T04:10:02.919Z,15.49
2023-02-24T04:12:43.536Z,15.51
2023-02-24T04:15:13.592Z,15.52
2023-02-24T04:17:49.166Z,15.52
2023-02-24T04:20:20.338Z,15.54
2023-02-24T04:22:54.559Z,15.54
2023-02-24T04:25:27.115Z,15.54
2023-02-24T04:27:59.235Z,15.53
2023-02-24T04:30:30.713Z,15.53
2023-02-24T04:32:57.479Z,15.52
2023-02-24T04:35:26.716Z,15.52
2023-02-24T04:37:53.257Z,15.52
2023-02-24T04:40:24.704Z,15.52
2023-02-24T04:42:53.391Z,15.51
2023-02-24T04:45:26.006Z,15.51
2023-02-24T04:48:12.886Z,15.51
2023-02-24T04:50:43.141Z,15.49
2023-02-24T04:53:15.450Z,15.49
2023-02-24T04:55:48.850Z,15.49
2023-02-24T04:58:20.891Z,15.48
2023-02-24T05:00:49.225Z,15.49
2023-02-24T05:03:17.387Z,15.48
2023-02-24T05:05:58.119Z,15.47
2023-02-24T05:08:25.980Z,15.48
2023-02-24T05:10:53.005Z,15.47
2023-02-24T05:13:26.909Z,15.45
2023-02-24T05:15:56.518Z,15.46
2023-02-24T05:18:26.230Z,15.45
2023-02-24T05:21:13.730Z,15.45
2023-02-24T05:23:46.123Z,15.45
2023-02-24T05:26:17.588Z,15.45
2023-02-24T05:28:49.078Z,15.45
2023-02-24T05:31:19.137Z,15.45
2023-02-24T05:33:49.569Z,15.46
2023-02-24T05:36:18.970Z,15.45
2023-02-24T05:38:56.575Z,15.45
2023-02-24T05:41:25.762Z,15.45
2023-02-24T05:43:55.890Z,15.44
2023-02-24T05:46:33.741Z,15.44
2023-02-24T05:49:02.947Z,15.43
2023-02-24T05:51:35.846Z,15.42
2023-02-24T05:54:04.768Z,15.42
2023-02-24T05:56:36.351Z,15.41
2023-02-24T05:59:04.766Z,15.41
2023-02-24T06:01:34.283Z,15.41
2023-02-24T06:04:08.070Z,15.41
2023-02-24T06:06:39.351Z,15.38
2023-02-24T06:09:10.765Z,15.41
2023-02-24T06:11:40.716Z,15.41
2023-02-24T06:14:08.261Z,15.40
2023-02-24T06:16:36.916Z,15.39
2023-02-24T06:19:07.754Z,15.40
2023-02-24T06:21:35.823Z,15.39
2023-02-24T06:24:02.876Z,15.39
2023-02-24T06:26:33.756Z,15.39
2023-02-24T06:29:00.582Z,15.38
2023-02-24T06:31:27.599Z,15.38
2023-02-24T06:33:54.267Z,15.38
2023-02-24T06:36:21.698Z,15.38
2023-02-24T06:38:49.558Z,15.37
2023-02-24T06:41:16.451Z,15.37
2023-02-24T06:43:45.098Z,15.38
2023-02-24T06:46:14.344Z,15.39
2023-02-24T06:48:42.404Z,15.39
2023-02-24T06:51:13.678Z,15.39
2023-02-24T06:53:43.216Z,15.38
2023-02-24T06:56:15.160Z,15.38
2023-02-24T06:58:46.264Z,15.39
2023-02-24T07:01:15.169Z,15.38
2023-02-24T07:04:03.189Z,15.37
2023-02-24T07:06:34.332Z,15.37
2023-02-24T07:09:05.331Z,15.37
2023-02-24T07:11:33.835Z,15.36
2023-02-24T07:14:01.322Z,15.35
2023-02-24T07:16:28.947Z,15.36
2023-02-24T07:18:57.681Z,15.35
2023-02-24T07:21:26.142Z,15.33
2023-02-24T07:23:59.703Z,15.34
2023-02-24T07:26:27.788Z,15.35
2023-02-24T07:28:58.069Z,15.35
2023-02-24T07:31:26.077Z,15.34
2023-02-24T07:33:57.358Z,15.34
2023-02-24T07:36:25.017Z,15.33
2023-02-24T07:38:53.205Z,15.33
2023-02-24T07:41:22.854Z,15.33
2023-02-24T07:43:51.754Z,15.33
2023-02-24T07:46:24.459Z,15.32
2023-02-24T07:48:55.823Z,15.31
2023-02-24T07:51:25.066Z,15.33
2023-02-24T07:53:54.402Z,15.32
2023-02-24T07:56:26.933Z,15.32
2023-02-24T07:58:59.293Z,15.33
2023-02-24T08:01:38.728Z,15.31
2023-02-24T08:04:12.419Z,15.33
2023-02-24T08:06:46.069Z,15.31
2023-02-24T08:09:18.911Z,15.33
2023-02-24T08:11:52.361Z,15.37
2023-02-24T08:14:30.109Z,15.35
2023-02-24T08:16:59.725Z,15.36
2023-02-24T08:19:32.879Z,15.37
2023-02-24T08:22:19.664Z,15.37
2023-02-24T08:24:52.734Z,15.37
2023-02-24T08:27:30.316Z,15.37
2023-02-24T08:29:58.473Z,15.38
2023-02-24T08:32:33.889Z,15.39
2023-02-24T08:35:05.443Z,15.40
2023-02-24T08:37:39.542Z,15.40
2023-02-24T08:40:31.877Z,15.40
2023-02-24T08:43:16.572Z,15.41
2023-02-24T08:45:51.670Z,15.42
2023-02-24T08:48:32.150Z,15.41
2023-02-24T08:51:02.061Z,15.40
2023-02-24T08:53:31.517Z,15.41
2023-02-24T08:56:01.135Z,15.42
2023-02-24T08:58:27.726Z,15.41
2023-02-24T09:00:57.047Z,15.41
2023-02-24T09:03:29.122Z,15.42
2023-02-24T09:06:05.126Z,15.40
2023-02-24T09:08:38.472Z,15.42
2023-02-24T09:11:10.634Z,15.42
2023-02-24T09:13:43.085Z,15.43
2023-02-24T09:16:16.473Z,15.43
2023-02-24T09:18:43.962Z,15.42
2023-02-24T09:21:36.507Z,15.44
2023-02-24T09:24:07.568Z,15.44
2023-02-24T09:26:43.189Z,15.43
2023-02-24T09:29:33.529Z,15.44
2023-02-24T09:32:06.732Z,15.44
2023-02-24T09:34:44.145Z,15.45
2023-02-24T09:37:26.638Z,15.46
2023-02-24T09:39:57.065Z,15.46
2023-02-24T09:42:46.273Z,15.46
2023-02-24T09:45:32.907Z,15.48
2023-02-24T09:48:10.554Z,15.48
2023-02-24T09:51:03.879Z,15.50
2023-02-24T09:53:49.134Z,15.50
2023-02-24T09:56:30.560Z,15.52
2023-02-24T09:59:26.307Z,15.50
2023-02-24T10:02:02.989Z,15.53
2023-02-24T10:04:54.458Z,15.53
2023-02-24T10:07:38.413Z,15.54
2023-02-24T10:10:21.041Z,15.54
2023-02-24T10:12:52.622Z,15.58
2023-02-24T10:15:44.758Z,15.58
2023-02-24T10:18:45.396Z,15.57
2023-02-24T10:21:48.320Z,15.56
2023-02-24T10:25:01.513Z,15.57
2023-02-24T10:27:37.205Z,15.60
2023-02-24T10:30:11.216Z,15.61
2023-02-24T10:32:48.024Z,15.61
2023-02-24T10:35:17.102Z,15.61
2023-02-24T10:37:44.395Z,15.62
2023-02-24T10:40:12.995Z,15.62
2023-02-24T10:42:49.012Z,15.63
2023-02-24T10:45:26.667Z,15.61
2023-02-24T10:47:58.431Z,15.63
2023-02-24T10:50:30.289Z,15.64
2023-02-24T10:53:37.138Z,15.63
2023-02-24T10:56:39.882Z,15.64
2023-02-24T10:59:48.193Z,15.66
2023-02-24T11:02:29.915Z,15.66
2023-02-24T11:04:59.319Z,15.66
2023-02-24T11:07:33.759Z,15.67
2023-02-24T11:10:13.878Z,15.67
2023-02-24T11:13:10.020Z,15.68
2023-02-24T11:16:06.423Z,15.69
2023-02-24T11:18:33.704Z,15.70
2023-02-24T11:21:09.529Z,15.71
2023-02-24T11:23:40.303Z,15.72
2023-02-24T11:26:16.967Z,15.71
2023-02-24T11:29:10.605Z,15.70
2023-02-24T11:32:09.216Z,15.71
2023-02-24T11:34:49.738Z,15.73
2023-02-24T11:37:28.185Z,15.74
2023-02-24T11:40:10.267Z,15.74
2023-02-24T11:43:05.010Z,15.75
2023-02-24T11:45:49.952Z,15.75
2023-02-24T11:48:58.103Z,15.75
2023-02-24T11:51:31.087Z,15.77
2023-02-24T11:54:12.912Z,15.77
2023-02-24T11:56:44.126Z,15.78
2023-02-24T11:59:46.144Z,15.78
2023-02-24T12:02:33.841Z,15.79
2023-02-24T12:05:12.831Z,15.83
2023-02-24T12:07:45.972Z,15.85
2023-02-24T12:10:24.678Z,15.88
2023-02-24T12:13:10.822Z,15.92
2023-02-24T12:15:55.624Z,15.95
2023-02-24T12:18:29.937Z,16.00
2023-02-24T12:21:11.993Z,16.07
2023-02-24T12:23:44.591Z,16.11
2023-02-24T12:26:20.677Z,16.15
2023-02-24T12:29:28.914Z,16.19
2023-02-24T12:32:04.407Z,16.21
2023-02-24T12:34:56.840Z,16.23
2023-02-24T12:37:53.488Z,16.27
2023-02-24T12:40:47.867Z,16.31
2023-02-24T12:43:25.202Z,16.32
2023-02-24T12:46:05.231Z,16.36
2023-02-24T12:48:40.794Z,16.38
2023-02-24T12:51:20.870Z,16.39
2023-02-24T12:54:09.353Z,16.39
2023-02-24T12:56:52.944Z,16.41
2023-02-24T12:59:25.552Z,16.41
2023-02-24T13:01:59.857Z,16.42
2023-02-24T13:04:45.173Z,16.42
2023-02-24T13:07:28.785Z,16.43
2023-02-24T13:10:20.578Z,16.42
2023-02-24T13:13:15.951Z,16.42
2023-02-24T13:15:54.721Z,16.43
2023-02-24T13:18:29.030Z,16.45
2023-02-24T13:21:25.122Z,16.47
2023-02-24T13:23:58.521Z,16.48
2023-02-24T13:26:26.499Z,16.50
2023-02-24T13:29:12.810Z,16.51
2023-02-24T13:31:52.064Z,16.53
2023-02-24T13:34:41.715Z,16.54
2023-02-24T13:37:10.128Z,16.59
2023-02-24T13:39:41.336Z,16.61
2023-02-24T13:42:37.429Z,16.61
2023-02-24T13:45:18.008Z,16.63
2023-02-24T13:47:47.602Z,16.62
2023-02-24T13:50:31.296Z,16.62
2023-02-24T13:53:06.341Z,16.61
2023-02-24T13:56:06.579Z,16.60
2023-02-24T13:58:56.187Z,16.59
2023-02-24T14:01:25.965Z,16.58
2023-02-24T14:04:20.072Z,16.56
2023-02-24T14:06:54.230Z,16.56
2023-02-24T14:09:30.441Z,16.55
2023-02-24T14:12:12.245Z,16.55
2023-02-24T14:14:39.159Z,16.56
2023-02-24T14:17:05.727Z,16.56
2023-02-24T14:19:32.533Z,16.58
2023-02-24T14:22:00.159Z,16.58
2023-02-24T14:24:27.894Z,16.58
2023-02-24T14:26:57.777Z,16.58
2023-02-24T14:29:31.934Z,16.59
2023-02-24T14:31:59.445Z,16.59
2023-02-24T14:34:28.535Z,16.60
2023-02-24T14:36:57.794Z,16.61
2023-02-24T14:39:27.110Z,16.61
2023-02-24T14:42:07.748Z,16.61
2023-02-24T14:44:41.561Z,16.62
2023-02-24T14:47:11.005Z,16.60
2023-02-24T14:49:37.560Z,16.63
2023-02-24T14:52:16.440Z,16.62
2023-02-24T14:54:58.692Z,16.62
2023-02-24T14:57:30.355Z,16.60
2023-02-24T15:00:17.316Z,16.60
2023-02-24T15:02:48.707Z,16.59
2023-02-24T15:05:15.942Z,16.58
2023-02-24T15:07:45.410Z,16.57
2023-02-24T15:10:27.260Z,16.56
2023-02-24T15:13:06.148Z,16.55
2023-02-24T15:15:39.099Z,16.55
2023-02-24T15:18:17.339Z,16.57
2023-02-24T15:20:43.892Z,16.59
2023-02-24T15:23:32.090Z,16.61
2023-02-24T15:25:59.101Z,16.66
2023-02-24T15:28:31.279Z,16.67
2023-02-24T15:31:04.830Z,16.71
2023-02-24T15:33:37.298Z,16.76
2023-02-24T15:36:08.724Z,16.81
2023-02-24T15:38:38.214Z,16.86
2023-02-24T15:41:06.907Z,16.90
2023-02-24T15:43:37.221Z,16.94
2023-02-24T15:46:33.466Z,16.98
2023-02-24T15:49:04.494Z,17.05
2023-02-24T15:51:45.193Z,17.10
2023-02-24T15:54:16.347Z,17.13
2023-02-24T15:56:43.670Z,17.16
2023-02-24T15:59:17.443Z,17.17
2023-02-24T16:01:44.435Z,17.17
2023-02-24T16:04:11.075Z,17.21
2023-02-24T16:06:43.424Z,17.18
2023-02-24T16:09:15.624Z,17.18
2023-02-24T16:11:45.447Z,17.18
2023-02-24T16:14:17.866Z,17.18
2023-02-24T16:16:45.113Z,17.20
2023-02-24T16:19:14.549Z,17.21
2023-02-24T16:21:41.251Z,17.22
2023-02-24T16:24:07.869Z,17.23
2023-02-24T16:26:38.277Z,17.25
2023-02-24T16:29:11.693Z,17.26
2023-02-24T16:31:39.583Z,17.26
2023-02-24T16:34:07.300Z,17.28
2023-02-24T16:36:34.125Z,17.28
2023-02-24T16:39:01.166Z,17.29
2023-02-24T16:41:27.791Z,17.31
2023-02-24T16:43:54.315Z,17.31
2023-02-24T16:46:23.053Z,17.32
2023-02-24T16:48:53.297Z,17.32
2023-02-24T16:51:20.470Z,17.33
2023-02-24T16:53:46.990Z,17.34
2023-02-24T16:56:15.102Z,17.35
2023-02-24T16:58:41.695Z,17.35
2023-02-24T17:01:09.581Z,17.36
2023-02-24T17:03:46.039Z,17.37
2023-02-24T17:06:12.719Z,17.38
2023-02-24T17:08:41.526Z,17.39
2023-02-24T17:11:12.231Z,17.38
2023-02-24T17:13:38.885Z,17.37
2023-02-24T17:16:05.807Z,17.36
2023-02-24T17:18:32.338Z,17.37
2023-02-24T17:20:59.604Z,17.36
2023-02-24T17:23:26.276Z,17.35
2023-02-24T17:25:55.967Z,17.34
2023-02-24T17:28:23.034Z,17.33
2023-02-24T17:30:49.685Z,17.33
2023-02-24T17:33:16.278Z,17.31
2023-02-24T17:35:43.372Z,17.31
2023-02-24T17:38:17.662Z,17.28
2023-02-24T17:40:45.720Z,17.28
2023-02-24T17:43:12.545Z,17.27
2023-02-24T17:45:44.360Z,17.26
2023-02-24T17:48:12.438Z,17.25
2023-02-24T17:50:42.278Z,17.25
2023-02-24T17:53:08.845Z,17.23
2023-02-24T17:55:35.365Z,17.22
2023-02-24T17:58:02.032Z,17.22
2023-02-24T18:00:28.686Z,17.21
2023-02-24T18:02:55.416Z,17.20
2023-02-24T18:05:22.039Z,17.19
2023-02-24T18:07:48.606Z,17.19
2023-02-24T18:10:15.329Z,17.19
2023-02-24T18:12:42.162Z,17.21
2023-02-24T18:15:09.808Z,17.24
2023-02-24T18:17:38.278Z,17.26
2023-02-24T18:20:07.003Z,17.27
2023-02-24T18:22:34.113Z,17.30
2023-02-24T18:25:01.116Z,17.30
2023-02-24T18:27:27.912Z,17.31
2023-02-24T18:29:54.456Z,17.31
2023-02-24T18:32:21.502Z,17.32
2023-02-24T18:34:48.422Z,17.33
2023-02-24T18:37:16.112Z,17.35
2023-02-24T18:39:42.634Z,17.37
2023-02-24T18:42:09.778Z,17.36
2023-02-24T18:44:36.398Z,17.37
2023-02-24T18:47:09.149Z,17.38
2023-02-24T18:49:36.304Z,17.38
2023-02-24T18:52:02.892Z,17.41
2023-02-24T18:54:29.384Z,17.41
2023-02-24T18:56:55.920Z,17.42
2023-02-24T18:59:22.541Z,17.44
2023-02-24T19:01:51.292Z,17.46
2023-02-24T19:04:17.845Z,17.48
2023-02-24T19:06:49.259Z,17.49
2023-02-24T19:09:21.445Z,17.50
2023-02-24T19:11:49.730Z,17.50
2023-02-24T19:14:16.786Z,17.49
2023-02-24T19:16:43.715Z,17.47
2023-02-24T19:19:14.830Z,17.45
2023-02-24T19:21:41.627Z,17.44
2023-02-24T19:24:11.385Z,17.42
2023-02-24T19:26:38.651Z,17.41
2023-02-24T19:29:05.714Z,17.38
2023-02-24T19:31:33.557Z,17.38
2023-02-24T19:34:03.537Z,17.34
2023-02-24T19:36:32.200Z,17.30
2023-02-24T19:38:58.874Z,17.30
2023-02-24T19:41:26.374Z,17.26
2023-02-24T19:43:53.108Z,17.25
2023-02-24T19:46:20.007Z,17.24
2023-02-24T19:48:47.311Z,17.22
2023-02-24T19:51:16.721Z,17.20
2023-02-24T19:53:43.849Z,17.20
2023-02-24T19:56:10.546Z,17.18
2023-02-24T19:58:37.148Z,17.16
2023-02-24T20:01:09.337Z,17.16
2023-02-24T20:03:40.681Z,17.14
2023-02-24T20:06:17.121Z,17.13
2023-02-24T20:08:43.632Z,17.13
2023-02-24T20:11:10.186Z,17.12
2023-02-24T20:13:36.854Z,17.11
2023-02-24T20:16:12.643Z,17.09
2023-02-24T20:18:39.877Z,17.10
2023-02-24T20:21:07.686Z,17.08
2023-02-24T20:23:34.322Z,17.08
2023-02-24T20:26:01.329Z,17.06
2023-02-24T20:28:28.484Z,17.06
2023-02-24T20:30:57.250Z,17.05
2023-02-24T20:33:24.122Z,17.05
2023-02-24T20:35:50.692Z,17.04
2023-02-24T20:38:17.773Z,17.03
2023-02-24T20:40:44.274Z,17.04
2023-02-24T20:43:11.210Z,17.05
2023-02-24T20:45:40.818Z,17.07
2023-02-24T20:48:08.792Z,17.08
2023-02-24T20:50:36.000Z,17.09
2023-02-24T20:53:03.430Z,17.10
2023-02-24T20:55:30.416Z,17.11
2023-02-24T20:57:57.334Z,17.12
2023-02-24T21:00:23.982Z,17.13
2023-02-24T21:02:50.523Z,17.15
2023-02-24T21:05:22.675Z,17.16
2023-02-24T21:07:50.289Z,17.18
2023-02-24T21:10:18.019Z,17.18
2023-02-24T21:12:45.049Z,17.20
2023-02-24T21:15:12.371Z,17.20
2023-02-24T21:17:39.659Z,17.21
2023-02-24T21:20:11.112Z,17.22
2023-02-24T21:22:41.499Z,17.22
2023-02-24T21:25:12.343Z,17.22
2023-02-24T21:27:39.380Z,17.24
2023-02-24T21:30:07.951Z,17.24
2023-02-24T21:32:34.813Z,17.24
2023-02-24T21:35:02.178Z,17.25
2023-02-24T21:37:29.270Z,17.24
2023-02-24T21:39:55.766Z,17.21
2023-02-24T21:42:22.558Z,17.21
2023-02-24T21:44:52.128Z,17.22
2023-02-24T21:47:18.982Z,17.21
2023-02-24T21:49:46.222Z,17.22
2023-02-24T21:52:13.350Z,17.24
2023-02-24T21:54:40.052Z,17.25
2023-02-24T21:57:08.144Z,17.27
2023-02-24T21:59:34.660Z,17.27
2023-02-24T22:02:01.451Z,17.27
2023-02-24T22:04:28.188Z,17.28
2023-02-24T22:06:54.782Z,17.26
2023-02-24T22:09:21.416Z,17.27
2023-02-24T22:11:49.159Z,17.28
2023-02-24T22:14:16.065Z,17.27
2023-02-24T22:16:43.361Z,17.27
2023-02-24T22:19:10.677Z,17.27
2023-02-24T22:21:39.524Z,17.25
2023-02-24T22:24:06.466Z,17.26
2023-02-24T22:26:33.341Z,17.25
2023-02-24T22:29:00.890Z,17.25
2023-02-24T22:31:30.326Z,17.26
2023-02-24T22:33:57.446Z,17.24
2023-02-24T22:36:29.673Z,17.21
2023-02-24T22:38:57.930Z,17.22
2023-02-24T22:41:28.186Z,17.22
2023-02-24T22:43:54.768Z,17.22
2023-02-24T22:46:24.533Z,17.21
2023-02-24T22:48:51.282Z,17.22
2023-02-24T22:51:18.567Z,17.23
2023-02-24T22:53:48.781Z,17.23
2023-02-24T22:56:17.888Z,17.22
2023-02-24T22:58:45.287Z,17.23
2023-02-24T23:01:19.619Z,17.22
2023-02-24T23:03:46.534Z,17.23
2023-02-24T23:06:16.621Z,17.22
2023-02-24T23:08:46.228Z,17.21
2023-02-24T23:11:30.933Z,17.20
2023-02-24T23:14:00.129Z,17.18
2023-02-24T23:16:29.689Z,17.16
2023-02-24T23:19:04.821Z,17.12
2023-02-24T23:21:34.689Z,17.10
2023-02-24T23:24:01.847Z,17.07
2023-02-24T23:26:30.388Z,17.04
2023-02-24T23:28:57.004Z,16.99
2023-02-24T23:31:24.026Z,16.96
2023-02-24T23:33:52.882Z,16.93
2023-02-24T23:36:19.438Z,16.91
2023-02-24T23:38:45.992Z,16.87
2023-02-24T23:41:12.792Z,16.85
2023-02-24T23:43:40.568Z,16.83
2023-02-24T23:46:09.499Z,16.79
2023-02-24T23:48:37.203Z,16.77
2023-02-24T23:51:10.669Z,16.74
2023-02-24T23:53:41.872Z,16.71
2023-02-24T23:56:16.332Z,16.68
2023-02-24T23:58:43.782Z,16.67
